Time;durP1;ratioP1;P1;durP2;ratioP2;P2;SDS_P1;SDS_P2;PMS_P1;PMS_P2;Temp;Humidity;BMP_temperature;BMP_pressure;BME280_temperature;BME280_humidity;BME280_pressure;Samples;Min_cycle;Max_cycle;Signal;HPM_P1;HPM_P2
2023/11/22 00:00:53;;;;;;;11.20;9.13;;;;;;;;;;6224566;23;20437;-85
2023/11/22 00:03:29;;;;;;;7.43;6.73;;;;;;;;;;6217701;23;20450;-86
2023/11/22 00:05:59;;;;;;;9.00;7.90;;;;;;;;;;6221571;23;20444;-88
2023/11/22 00:08:40;;;;;;;8.00;7.20;;;;;;;;;;6224875;23;20724;-87
2023/11/22 00:11:24;;;;;;;8.70;7.00;;;;;;;;;;6217005;23;20433;-87
2023/11/22 00:13:56;;;;;;;9.40;7.93;;;;;;;;;;6220858;23;20405;-84
2023/11/22 00:16:32;;;;;;;11.80;8.33;;;;;;;;;;6216119;23;20429;-87
2023/11/22 00:19:15;;;;;;;9.27;7.03;;;;;;;;;;6220142;23;20448;-86
2023/11/22 00:21:52;;;;;;;9.33;7.70;;;;;;;;;;6217482;23;20902;-86
2023/11/22 00:24:33;;;;;;;9.60;7.50;;;;;;;;;;6216465;23;20910;-85
2023/11/22 00:27:16;;;;;;;9.17;7.40;;;;;;;;;;6211160;23;20418;-86
2023/11/22 00:29:56;;;;;;;11.20;7.90;;;;;;;;;;6216669;23;20805;-86
2023/11/22 00:32:34;;;;;;;10.17;8.23;;;;;;;;;;6185058;23;21063;-85
2023/11/22 00:35:09;;;;;;;9.37;7.40;;;;;;;;;;6200577;23;20464;-84
2023/11/22 00:37:50;;;;;;;9.10;7.87;;;;;;;;;;6212941;23;20448;-85
2023/11/22 00:40:35;;;;;;;12.63;8.30;;;;;;;;;;6212847;23;20835;-85
2023/11/22 00:43:43;;;;;;;8.93;7.63;;;;;;;;;;6209570;23;20401;-83
2023/11/22 00:46:14;;;;;;;11.07;8.40;;;;;;;;;;6213701;23;20441;-87
2023/11/22 00:48:46;;;;;;;10.03;8.50;;;;;;;;;;6217999;23;20433;-86
2023/11/22 00:51:29;;;;;;;8.17;7.20;;;;;;;;;;6216076;23;20417;-85
2023/11/22 00:54:05;;;;;;;9.50;7.63;;;;;;;;;;6216021;23;20432;-87
2023/11/22 00:56:47;;;;;;;9.63;7.80;;;;;;;;;;6219613;23;20400;-84
2023/11/22 00:59:23;;;;;;;11.27;8.27;;;;;;;;;;6217655;23;20489;-86
2023/11/22 01:01:58;;;;;;;10.23;7.90;;;;;;;;;;6216763;23;20437;-85
2023/11/22 01:04:47;;;;;;;8.83;7.77;;;;;;;;;;6215090;23;20456;-84
2023/11/22 01:07:27;;;;;;;11.20;7.90;;;;;;;;;;6212579;23;20528;-85
2023/11/22 01:10:20;;;;;;;12.13;7.60;;;;;;;;;;6222687;23;20441;-84
2023/11/22 01:12:54;;;;;;;12.20;8.10;;;;;;;;;;6217381;23;21177;-86
2023/11/22 01:15:24;;;;;;;10.80;8.10;;;;;;;;;;6217011;23;20420;-85
2023/11/22 01:18:08;;;;;;;10.30;7.50;;;;;;;;;;6217116;23;20444;-85
2023/11/22 01:21:03;;;;;;;9.40;7.27;;;;;;;;;;6216735;23;20777;-87
2023/11/22 01:23:59;;;;;;;8.80;7.77;;;;;;;;;;6215703;23;20442;-85
2023/11/22 01:26:49;;;;;;;12.27;8.30;;;;;;;;;;6215235;23;20421;-86
2023/11/22 01:29:45;;;;;;;9.17;7.43;;;;;;;;;;6218350;23;20417;-85
2023/11/22 01:32:22;;;;;;;11.60;8.70;;;;;;;;;;6216383;23;20421;-85
2023/11/22 01:35:20;;;;;;;13.50;8.77;;;;;;;;;;6217361;23;20438;-86
2023/11/22 01:37:52;;;;;;;10.80;9.30;;;;;;;;;;6214241;23;20440;-86
2023/11/22 01:40:50;;;;;;;10.20;8.40;;;;;;;;;;6216332;23;20427;-88
2023/11/22 01:43:31;;;;;;;10.50;8.00;;;;;;;;;;6218380;23;20408;-86
2023/11/22 01:46:05;;;;;;;13.27;9.43;;;;;;;;;;6217477;23;20424;-87
2023/11/22 01:48:39;;;;;;;13.60;9.27;;;;;;;;;;6209802;23;20433;-86
2023/11/22 01:51:08;;;;;;;10.30;9.13;;;;;;;;;;6216765;23;20472;-86
2023/11/22 01:53:39;;;;;;;9.40;7.53;;;;;;;;;;6216400;23;20405;-85
2023/11/22 01:56:12;;;;;;;9.87;7.70;;;;;;;;;;6216633;23;20402;-88
2023/11/22 01:58:44;;;;;;;11.07;8.00;;;;;;;;;;6217678;23;20431;-84
2023/11/22 02:01:18;;;;;;;10.03;8.17;;;;;;;;;;6217536;23;20928;-85
2023/11/22 02:03:52;;;;;;;12.60;8.07;;;;;;;;;;6217233;23;20412;-84
2023/11/22 02:06:31;;;;;;;11.50;8.10;;;;;;;;;;6216346;23;20393;-83
2023/11/22 02:09:00;;;;;;;9.70;7.67;;;;;;;;;;6215405;23;20421;-87
2023/11/22 02:11:30;;;;;;;9.33;8.23;;;;;;;;;;6217794;23;20440;-85
2023/11/22 02:13:59;;;;;;;8.67;7.77;;;;;;;;;;6217230;23;20408;-84
2023/11/22 02:16:27;;;;;;;11.10;8.47;;;;;;;;;;6221820;23;20448;-85
2023/11/22 02:18:59;;;;;;;10.10;8.40;;;;;;;;;;6219104;23;20435;-86
2023/11/22 02:21:34;;;;;;;10.30;9.07;;;;;;;;;;6219467;23;20487;-86
2023/11/22 02:24:04;;;;;;;11.77;8.67;;;;;;;;;;6230818;23;20481;-85
2023/11/22 02:26:33;;;;;;;10.67;8.47;;;;;;;;;;6234407;22;20520;-87
2023/11/22 02:29:04;;;;;;;10.17;7.70;;;;;;;;;;6235322;23;20429;-86
2023/11/22 02:31:34;;;;;;;9.77;7.80;;;;;;;;;;6216105;23;20416;-86
2023/11/22 02:34:09;;;;;;;8.43;7.53;;;;;;;;;;6222058;23;20407;-84
2023/11/22 02:36:45;;;;;;;8.60;7.60;;;;;;;;;;6217288;23;20420;-84
2023/11/22 02:39:20;;;;;;;8.67;7.13;;;;;;;;;;6221575;23;20689;-87
2023/11/22 02:41:49;;;;;;;8.97;7.70;;;;;;;;;;6230319;22;20407;-85
2023/11/22 02:44:19;;;;;;;12.03;8.17;;;;;;;;;;6216208;23;20409;-86
2023/11/22 02:46:57;;;;;;;8.00;7.20;;;;;;;;;;6216305;23;20397;-84
2023/11/22 02:49:29;;;;;;;10.10;8.50;;;;;;;;;;6215617;23;20429;-84
2023/11/22 02:51:57;;;;;;;8.93;8.03;;;;;;;;;;6213304;23;21000;-86
2023/11/22 02:54:24;;;;;;;9.30;7.60;;;;;;;;;;6206230;23;20424;-84
2023/11/22 02:56:53;;;;;;;9.33;8.37;;;;;;;;;;6207017;23;20409;-84
2023/11/22 02:59:23;;;;;;;7.73;6.90;;;;;;;;;;6207389;23;20472;-84
2023/11/22 03:01:53;;;;;;;8.77;7.30;;;;;;;;;;6206223;23;20436;-84
2023/11/22 03:04:24;;;;;;;8.43;7.47;;;;;;;;;;6204882;23;20444;-84
2023/11/22 03:06:52;;;;;;;12.83;7.73;;;;;;;;;;6205090;23;20408;-82
2023/11/22 03:09:19;;;;;;;10.73;8.10;;;;;;;;;;6204151;23;20455;-84
2023/11/22 03:11:47;;;;;;;8.70;7.80;;;;;;;;;;6209278;23;20408;-86
2023/11/22 03:14:19;;;;;;;8.20;7.40;;;;;;;;;;6213781;23;20410;-84
2023/11/22 03:16:51;;;;;;;9.40;7.27;;;;;;;;;;6215382;23;20405;-86
2023/11/22 03:19:27;;;;;;;9.77;7.03;;;;;;;;;;6211883;23;20452;-85
2023/11/22 03:21:58;;;;;;;8.00;7.20;;;;;;;;;;6209342;23;20408;-84
2023/11/22 03:24:30;;;;;;;8.37;7.37;;;;;;;;;;6207457;23;20405;-83
2023/11/22 03:27:01;;;;;;;7.23;6.43;;;;;;;;;;6207830;23;20393;-84
2023/11/22 03:29:29;;;;;;;7.73;6.17;;;;;;;;;;6207559;23;20410;-82
2023/11/22 03:31:58;;;;;;;7.77;6.10;;;;;;;;;;6208051;23;20765;-85
2023/11/22 03:34:28;;;;;;;7.40;6.60;;;;;;;;;;6208433;23;20454;-85
2023/11/22 03:37:01;;;;;;;7.97;7.17;;;;;;;;;;6209248;23;20396;-84
2023/11/22 03:39:28;;;;;;;7.70;6.03;;;;;;;;;;6224032;22;20429;-88
2023/11/22 03:42:02;;;;;;;8.30;6.80;;;;;;;;;;6227914;22;20456;-86
2023/11/22 03:44:29;;;;;;;9.30;7.33;;;;;;;;;;6227791;22;20401;-85
2023/11/22 03:47:07;;;;;;;7.83;7.03;;;;;;;;;;6228828;22;20384;-89
2023/11/22 03:49:36;;;;;;;8.07;6.60;;;;;;;;;;6233275;22;20440;-87
2023/11/22 03:52:09;;;;;;;10.17;6.90;;;;;;;;;;6231766;22;21003;-87
2023/11/22 03:54:39;;;;;;;8.60;7.77;;;;;;;;;;6233552;22;20420;-87
2023/11/22 03:57:07;;;;;;;9.57;7.30;;;;;;;;;;6232441;22;20425;-87
2023/11/22 03:59:38;;;;;;;8.60;7.80;;;;;;;;;;6232800;22;20400;-88
2023/11/22 04:02:07;;;;;;;10.83;7.70;;;;;;;;;;6232608;22;20437;-86
2023/11/22 04:04:41;;;;;;;9.40;7.40;;;;;;;;;;6232764;22;20403;-88
2023/11/22 04:07:08;;;;;;;7.87;7.07;;;;;;;;;;6232789;22;20401;-86
2023/11/22 04:09:38;;;;;;;9.03;7.67;;;;;;;;;;6233612;23;20412;-87
2023/11/22 04:12:06;;;;;;;9.53;8.20;;;;;;;;;;6233624;22;20385;-85
2023/11/22 04:14:41;;;;;;;9.23;8.30;;;;;;;;;;6232875;23;20413;-85
2023/11/22 04:17:11;;;;;;;10.63;8.40;;;;;;;;;;6230476;23;20377;-86
2023/11/22 04:19:39;;;;;;;9.07;7.80;;;;;;;;;;6228167;22;20417;-87
2023/11/22 04:22:12;;;;;;;9.00;7.43;;;;;;;;;;6230305;23;20528;-87
2023/11/22 04:24:42;;;;;;;9.23;7.80;;;;;;;;;;6223927;23;20424;-85
2023/11/22 04:27:16;;;;;;;8.87;7.23;;;;;;;;;;6228148;23;20776;-88
2023/11/22 04:29:46;;;;;;;9.43;7.83;;;;;;;;;;6234910;22;20413;-87
2023/11/22 04:32:15;;;;;;;9.20;7.60;;;;;;;;;;6236365;23;20428;-88
2023/11/22 04:34:42;;;;;;;9.40;8.00;;;;;;;;;;6235378;22;20668;-87
2023/11/22 04:37:10;;;;;;;8.00;6.33;;;;;;;;;;6236150;22;20439;-88
2023/11/22 04:39:40;;;;;;;9.43;8.00;;;;;;;;;;6224809;22;20910;-84
2023/11/22 04:42:07;;;;;;;10.00;8.13;;;;;;;;;;6215227;23;20451;-86
2023/11/22 04:44:35;;;;;;;8.43;7.53;;;;;;;;;;6213950;23;20416;-84
2023/11/22 04:47:02;;;;;;;8.50;7.60;;;;;;;;;;6215341;23;20913;-86
2023/11/22 04:49:32;;;;;;;9.90;8.13;;;;;;;;;;6214125;23;20416;-86
2023/11/22 04:52:04;;;;;;;8.80;7.27;;;;;;;;;;6214116;23;20927;-87
2023/11/22 04:54:32;;;;;;;9.20;8.30;;;;;;;;;;6212631;23;20421;-86
2023/11/22 04:57:07;;;;;;;10.77;8.10;;;;;;;;;;6212918;23;20417;-86
2023/11/22 04:59:34;;;;;;;8.67;7.80;;;;;;;;;;6212773;23;20413;-84
2023/11/22 05:02:02;;;;;;;10.10;8.33;;;;;;;;;;6213733;23;20468;-87
2023/11/22 05:04:32;;;;;;;8.73;7.83;;;;;;;;;;6213164;23;20412;-85
2023/11/22 05:07:03;;;;;;;12.87;8.60;;;;;;;;;;6215298;23;20382;-86
2023/11/22 05:09:32;;;;;;;10.70;7.87;;;;;;;;;;6233104;23;20457;-86
2023/11/22 05:12:00;;;;;;;7.70;6.70;;;;;;;;;;6237152;23;20456;-87
2023/11/22 05:14:32;;;;;;;8.47;7.67;;;;;;;;;;6223365;23;20488;-84
2023/11/22 05:17:00;;;;;;;8.93;7.90;;;;;;;;;;6218289;23;20445;-86
2023/11/22 05:19:27;;;;;;;11.47;8.27;;;;;;;;;;6214431;23;20436;-85
2023/11/22 05:21:55;;;;;;;10.60;7.67;;;;;;;;;;6214986;23;20440;-85
2023/11/22 05:24:25;;;;;;;9.47;7.13;;;;;;;;;;6213830;23;20408;-87
2023/11/22 05:26:58;;;;;;;9.07;7.87;;;;;;;;;;6214228;23;20416;-86
2023/11/22 05:29:25;;;;;;;8.57;7.67;;;;;;;;;;6219938;22;20393;-87
2023/11/22 05:32:02;;;;;;;9.43;7.67;;;;;;;;;;6234458;22;20430;-88
2023/11/22 05:34:30;;;;;;;8.57;7.50;;;;;;;;;;6232327;23;20416;-87
2023/11/22 05:36:57;;;;;;;9.10;7.77;;;;;;;;;;6223912;23;20421;-86
2023/11/22 05:39:30;;;;;;;9.20;6.70;;;;;;;;;;6220507;23;20404;-86
2023/11/22 05:41:58;;;;;;;7.83;7.03;;;;;;;;;;6214130;23;20464;-88
2023/11/22 05:44:42;;;;;;;9.40;7.13;;;;;;;;;;6212951;23;20409;-85
2023/11/22 05:47:13;;;;;;;8.03;6.87;;;;;;;;;;6211778;23;20480;-85
2023/11/22 05:50:02;;;;;;;8.90;7.30;;;;;;;;;;6206957;23;20401;-86
2023/11/22 05:52:33;;;;;;;9.70;7.20;;;;;;;;;;6213388;23;20417;-85
2023/11/22 05:55:03;;;;;;;7.53;6.60;;;;;;;;;;6210342;23;20408;-86
2023/11/22 05:57:31;;;;;;;9.57;6.60;;;;;;;;;;6208799;23;20460;-86
2023/11/22 05:59:59;;;;;;;7.10;5.77;;;;;;;;;;6207556;23;20835;-86
2023/11/22 06:02:26;;;;;;;8.60;6.40;;;;;;;;;;6207128;23;20433;-85
2023/11/22 06:04:56;;;;;;;6.97;5.80;;;;;;;;;;6209701;23;20466;-86
2023/11/22 06:07:23;;;;;;;7.40;5.60;;;;;;;;;;6211004;23;21011;-85
2023/11/22 06:09:50;;;;;;;6.83;6.13;;;;;;;;;;6210235;23;20495;-87
2023/11/22 06:12:19;;;;;;;8.03;5.80;;;;;;;;;;6206829;23;20412;-86
2023/11/22 06:14:46;;;;;;;7.07;6.07;;;;;;;;;;6206917;23;21192;-86
2023/11/22 06:17:14;;;;;;;6.50;5.90;;;;;;;;;;6204596;23;20428;-86
2023/11/22 06:19:43;;;;;;;9.60;6.37;;;;;;;;;;6207722;23;20413;-86
2023/11/22 06:22:14;;;;;;;6.33;5.43;;;;;;;;;;6210405;23;21064;-85
2023/11/22 06:24:44;;;;;;;8.03;7.07;;;;;;;;;;6210161;23;20429;-85
2023/11/22 06:27:11;;;;;;;6.17;5.57;;;;;;;;;;6207539;23;20401;-86
2023/11/22 06:29:39;;;;;;;6.67;5.70;;;;;;;;;;6213438;23;20419;-87
2023/11/22 06:32:09;;;;;;;6.80;6.00;;;;;;;;;;6219101;23;20429;-86
2023/11/22 06:34:41;;;;;;;9.87;6.00;;;;;;;;;;6217572;23;21062;-85
2023/11/22 06:37:10;;;;;;;7.17;5.70;;;;;;;;;;6213269;23;20413;-85
2023/11/22 06:39:37;;;;;;;5.90;5.30;;;;;;;;;;6210506;23;20464;-87
2023/11/22 06:42:05;;;;;;;8.37;6.37;;;;;;;;;;6224611;23;20428;-87
2023/11/22 06:44:32;;;;;;;8.33;5.87;;;;;;;;;;6219711;23;20428;-83
2023/11/22 06:46:59;;;;;;;10.27;7.50;;;;;;;;;;6210362;23;20394;-84
2023/11/22 06:49:26;;;;;;;8.53;6.43;;;;;;;;;;6207662;23;20420;-84
2023/11/22 06:51:53;;;;;;;6.10;5.50;;;;;;;;;;6208705;23;20413;-85
2023/11/22 06:54:22;;;;;;;7.33;5.67;;;;;;;;;;6216649;23;20515;-87
2023/11/22 06:56:51;;;;;;;5.70;4.67;;;;;;;;;;6215219;23;20413;-85
2023/11/22 06:59:18;;;;;;;8.93;5.40;;;;;;;;;;6207552;23;20451;-85
2023/11/22 07:01:46;;;;;;;6.00;5.40;;;;;;;;;;6207383;23;20445;-85
2023/11/22 07:04:13;;;;;;;5.83;4.97;;;;;;;;;;6209777;23;20420;-84
2023/11/22 07:06:42;;;;;;;5.63;5.10;;;;;;;;;;6211910;23;20423;-86
2023/11/22 07:09:10;;;;;;;5.70;4.60;;;;;;;;;;6208891;23;20500;-85
2023/11/22 07:11:38;;;;;;;5.47;4.97;;;;;;;;;;6223837;22;20394;-85
2023/11/22 07:14:26;;;;;;;5.93;4.80;;;;;;;;;;6193402;23;20500;-86
2023/11/22 07:16:54;;;;;;;5.40;4.70;;;;;;;;;;6217962;23;20409;-88
2023/11/22 07:19:22;;;;;;;5.87;4.80;;;;;;;;;;6178151;23;20409;-84
2023/11/22 07:21:50;;;;;;;6.97;4.70;;;;;;;;;;6176055;23;20945;-86
2023/11/22 07:24:20;;;;;;;4.60;4.20;;;;;;;;;;6176888;23;20442;-85
2023/11/22 07:26:50;;;;;;;5.73;4.83;;;;;;;;;;6180143;23;20417;-88
2023/11/22 07:29:26;;;;;;;4.70;4.30;;;;;;;;;;6181926;23;20440;-85
2023/11/22 07:31:53;;;;;;;5.57;4.90;;;;;;;;;;6179160;23;20431;-85
2023/11/22 07:34:21;;;;;;;6.40;5.00;;;;;;;;;;6180182;23;20477;-87
2023/11/22 07:36:58;;;;;;;;;;;;;;;;;;;;;
2023/11/22 07:39:27;;;;;;;5.13;4.50;;;;;;;;;;6178561;23;20476;-85
2023/11/22 07:41:55;;;;;;;5.80;5.17;;;;;;;;;;6176414;23;21378;-87
2023/11/22 07:44:24;;;;;;;7.70;5.13;;;;;;;;;;6176442;23;20418;-84
2023/11/22 07:46:51;;;;;;;10.00;5.07;;;;;;;;;;6178796;23;20421;-84
2023/11/22 07:49:21;;;;;;;7.70;5.10;;;;;;;;;;6178243;23;20505;-84
2023/11/22 07:51:51;;;;;;;7.10;5.03;;;;;;;;;;6178598;23;20445;-84
2023/11/22 07:54:22;;;;;;;7.57;5.17;;;;;;;;;;6176811;23;20428;-86
2023/11/22 07:56:50;;;;;;;6.07;5.10;;;;;;;;;;6175844;23;20425;-85
2023/11/22 07:59:17;;;;;;;5.50;4.27;;;;;;;;;;6176219;23;20434;-85
2023/11/22 08:01:44;;;;;;;7.03;6.17;;;;;;;;;;6177496;23;21328;-86
2023/11/22 08:04:11;;;;;;;5.60;4.13;;;;;;;;;;6188689;23;20410;-87
2023/11/22 08:06:39;;;;;;;4.73;3.97;;;;;;;;;;6186037;23;20416;-87
2023/11/22 08:09:08;;;;;;;4.57;3.80;;;;;;;;;;6179872;23;20755;-84
2023/11/22 08:11:35;;;;;;;4.63;4.23;;;;;;;;;;6177012;23;20473;-85
2023/11/22 08:14:03;;;;;;;6.10;4.27;;;;;;;;;;6176191;23;20441;-85
2023/11/22 08:16:30;;;;;;;5.40;4.10;;;;;;;;;;6177959;23;20520;-84
2023/11/22 08:18:58;;;;;;;4.90;4.50;;;;;;;;;;6177643;23;20512;-84
2023/11/22 08:21:28;;;;;;;5.90;4.60;;;;;;;;;;6175284;23;20446;-85
2023/11/22 08:23:55;;;;;;;3.90;3.30;;;;;;;;;;6177581;23;20406;-85
2023/11/22 08:26:24;;;;;;;5.30;3.00;;;;;;;;;;6178233;23;20410;-84
2023/11/22 08:28:52;;;;;;;3.77;3.37;;;;;;;;;;6175997;23;20554;-86
2023/11/22 08:31:20;;;;;;;4.30;3.10;;;;;;;;;;6178494;23;20441;-87
2023/11/22 08:33:47;;;;;;;6.50;3.50;;;;;;;;;;6179481;23;20422;-87
2023/11/22 08:36:18;;;;;;;4.80;3.27;;;;;;;;;;6180038;23;20414;-86
2023/11/22 08:38:48;;;;;;;3.40;3.10;;;;;;;;;;6176200;23;20445;-86
2023/11/22 08:41:17;;;;;;;4.17;2.33;;;;;;;;;;6176804;23;20931;-86
2023/11/22 08:43:47;;;;;;;4.70;3.27;;;;;;;;;;6175943;23;20421;-84
2023/11/22 08:46:14;;;;;;;3.17;2.50;;;;;;;;;;6176589;23;20421;-85
2023/11/22 08:48:42;;;;;;;2.93;2.73;;;;;;;;;;6177140;23;20542;-85
2023/11/22 08:51:10;;;;;;;4.20;3.00;;;;;;;;;;6176656;23;20517;-85
2023/11/22 08:53:40;;;;;;;4.40;3.70;;;;;;;;;;6179821;23;20421;-85
2023/11/22 08:56:08;;;;;;;5.30;4.33;;;;;;;;;;6175503;23;20735;-87
2023/11/22 08:58:39;;;;;;;4.97;3.80;;;;;;;;;;6176438;23;20433;-86
2023/11/22 09:01:07;;;;;;;4.03;3.73;;;;;;;;;;6176474;23;20422;-85
2023/11/22 09:03:38;;;;;;;4.50;3.70;;;;;;;;;;6177126;23;20387;-88
2023/11/22 09:06:07;;;;;;;3.43;3.03;;;;;;;;;;6174633;23;20421;-86
2023/11/22 09:08:35;;;;;;;3.10;2.77;;;;;;;;;;6175072;23;20458;-86
2023/11/22 09:11:06;;;;;;;3.20;2.70;;;;;;;;;;6175252;23;20418;-86
2023/11/22 09:13:34;;;;;;;3.13;2.53;;;;;;;;;;6170751;23;20426;-86
2023/11/22 09:16:05;;;;;;;2.50;2.23;;;;;;;;;;6172810;23;20406;-87
2023/11/22 09:18:35;;;;;;;2.07;1.87;;;;;;;;;;6148952;23;20485;-84
2023/11/22 09:21:08;;;;;;;4.50;3.83;;;;;;;;;;6171442;23;20785;-87
2023/11/22 09:23:39;;;;;;;3.80;3.20;;;;;;;;;;6148929;23;20415;-85
2023/11/22 09:26:06;;;;;;;2.83;2.53;;;;;;;;;;6170790;23;20916;-84
2023/11/22 09:28:33;;;;;;;3.17;2.40;;;;;;;;;;6172797;23;20429;-86
2023/11/22 09:31:06;;;;;;;3.13;2.30;;;;;;;;;;6171931;23;20417;-86
2023/11/22 09:33:34;;;;;;;2.60;2.40;;;;;;;;;;6181890;23;20402;-86
2023/11/22 09:36:11;;;;;;;2.53;2.33;;;;;;;;;;6179508;23;20422;-87
2023/11/22 09:38:38;;;;;;;3.80;2.83;;;;;;;;;;6180859;23;20434;-85
2023/11/22 09:41:13;;;;;;;3.33;2.80;;;;;;;;;;6183788;23;20418;-87
2023/11/22 09:43:49;;;;;;;2.97;2.67;;;;;;;;;;6162027;23;20438;-85
2023/11/22 09:46:20;;;;;;;3.20;3.00;;;;;;;;;;6173617;23;20411;-86
2023/11/22 09:48:51;;;;;;;3.80;3.20;;;;;;;;;;6173641;23;20427;-87
2023/11/22 09:51:42;;;;;;;4.63;3.87;;;;;;;;;;6175266;23;20418;-86
2023/11/22 09:54:14;;;;;;;4.10;3.70;;;;;;;;;;6095789;23;20488;-86
2023/11/22 09:56:41;;;;;;;4.37;3.37;;;;;;;;;;6160836;23;20379;-87
2023/11/22 09:59:11;;;;;;;4.47;3.93;;;;;;;;;;6190856;23;20434;-85
2023/11/22 10:01:41;;;;;;;4.93;3.43;;;;;;;;;;6156372;23;20847;-86
2023/11/22 10:04:16;;;;;;;3.40;3.10;;;;;;;;;;6174468;23;20557;-88
2023/11/22 10:06:46;;;;;;;3.20;2.90;;;;;;;;;;6176645;23;20420;-86
2023/11/22 10:09:17;;;;;;;3.47;3.17;;;;;;;;;;6175650;23;20497;-86
2023/11/22 10:11:50;;;;;;;3.50;3.00;;;;;;;;;;6175661;23;20439;-87
2023/11/22 10:14:25;;;;;;;3.33;2.57;;;;;;;;;;6177548;23;20426;-85
2023/11/22 10:16:59;;;;;;;3.10;2.60;;;;;;;;;;6179513;23;20453;-87
2023/11/22 10:19:31;;;;;;;4.00;3.00;;;;;;;;;;6179073;23;20787;-85
2023/11/22 10:22:06;;;;;;;7.70;3.17;;;;;;;;;;6173003;23;20450;-86
2023/11/22 10:24:34;;;;;;;3.07;2.50;;;;;;;;;;6175516;23;20414;-86
2023/11/22 10:27:07;;;;;;;3.83;3.10;;;;;;;;;;6174233;23;20383;-87
2023/11/22 10:29:36;;;;;;;9.23;2.80;;;;;;;;;;6176909;23;20411;-86
2023/11/22 10:32:03;;;;;;;2.63;2.30;;;;;;;;;;6173346;23;20452;-86
2023/11/22 10:34:31;;;;;;;4.50;2.87;;;;;;;;;;6173842;23;20415;-87
2023/11/22 10:36:58;;;;;;;3.30;2.80;;;;;;;;;;6150398;23;20415;-85
2023/11/22 10:39:28;;;;;;;2.50;2.30;;;;;;;;;;6152296;23;20904;-84
2023/11/22 10:41:55;;;;;;;2.70;2.27;;;;;;;;;;6150080;23;20449;-84
2023/11/22 10:44:25;;;;;;;2.67;2.43;;;;;;;;;;6172726;23;20490;-83
2023/11/22 10:46:56;;;;;;;4.20;2.30;;;;;;;;;;6151344;23;20414;-87
2023/11/22 10:49:23;;;;;;;3.07;2.43;;;;;;;;;;6179311;23;20414;-87
2023/11/22 10:51:53;;;;;;;4.20;3.00;;;;;;;;;;6174388;23;20418;-85
2023/11/22 10:54:24;;;;;;;2.20;2.00;;;;;;;;;;6172374;23;20386;-86
2023/11/22 10:56:56;;;;;;;3.00;2.53;;;;;;;;;;6171194;23;20461;-87
2023/11/22 10:59:27;;;;;;;4.70;2.43;;;;;;;;;;6175566;23;20442;-83
2023/11/22 11:01:56;;;;;;;3.57;2.60;;;;;;;;;;6184318;23;20952;-85
2023/11/22 11:04:40;;;;;;;1.80;1.70;;;;;;;;;;6159990;23;20399;-85
2023/11/22 11:07:10;;;;;;;4.90;1.63;;;;;;;;;;6155764;23;20583;-86
2023/11/22 11:09:37;;;;;;;1.93;1.60;;;;;;;;;;6166651;23;20414;-87
2023/11/22 11:12:05;;;;;;;2.77;1.60;;;;;;;;;;6173081;23;20442;-86
2023/11/22 11:14:34;;;;;;;5.17;2.07;;;;;;;;;;6202472;23;20410;-90
2023/11/22 11:17:02;;;;;;;1.40;1.30;;;;;;;;;;6204133;23;20406;-88
2023/11/22 11:19:30;;;;;;;4.30;2.00;;;;;;;;;;6206682;23;20429;-86
2023/11/22 11:22:01;;;;;;;2.13;2.03;;;;;;;;;;6190369;23;20441;-84
2023/11/22 11:24:38;;;;;;;2.60;2.23;;;;;;;;;;6179733;23;20900;-84
2023/11/22 11:27:08;;;;;;;2.00;1.87;;;;;;;;;;6179507;23;20465;-85
2023/11/22 11:29:48;;;;;;;2.20;1.87;;;;;;;;;;6181691;23;21071;-84
2023/11/22 11:32:32;;;;;;;2.17;2.03;;;;;;;;;;6184533;23;20424;-86
2023/11/22 11:35:00;;;;;;;2.17;1.97;;;;;;;;;;6181413;23;21007;-86
2023/11/22 11:37:30;;;;;;;2.97;1.60;;;;;;;;;;6182828;23;20517;-86
2023/11/22 11:40:16;;;;;;;2.87;1.73;;;;;;;;;;6183478;23;20406;-86
2023/11/22 11:42:45;;;;;;;1.97;1.87;;;;;;;;;;6183013;23;20449;-87
2023/11/22 11:45:12;;;;;;;2.37;1.97;;;;;;;;;;6183892;23;20497;-89
2023/11/22 11:47:44;;;;;;;2.30;2.07;;;;;;;;;;6183783;23;20437;-85
2023/11/22 11:50:12;;;;;;;1.90;1.80;;;;;;;;;;6181251;23;20437;-85
2023/11/22 11:52:41;;;;;;;2.67;1.63;;;;;;;;;;6182893;23;20420;-84
2023/11/22 11:55:11;;;;;;;2.77;2.10;;;;;;;;;;6183381;23;20440;-86
2023/11/22 11:57:45;;;;;;;3.10;2.20;;;;;;;;;;6182963;23;20548;-87
2023/11/22 12:00:14;;;;;;;1.83;1.73;;;;;;;;;;6181008;23;20418;-86
2023/11/22 12:02:44;;;;;;;3.60;1.97;;;;;;;;;;6183396;23;20445;-85
2023/11/22 12:05:12;;;;;;;2.37;1.90;;;;;;;;;;6192867;23;20406;-85
2023/11/22 12:07:43;;;;;;;2.20;2.00;;;;;;;;;;6195470;23;20434;-87
2023/11/22 12:10:11;;;;;;;2.83;2.23;;;;;;;;;;6182251;23;20414;-85
2023/11/22 12:12:44;;;;;;;4.27;1.83;;;;;;;;;;6179571;23;20429;-89
2023/11/22 12:15:11;;;;;;;1.30;1.27;;;;;;;;;;6177780;23;20421;-84
2023/11/22 12:17:39;;;;;;;1.60;1.50;;;;;;;;;;6180257;23;20434;-84
2023/11/22 12:20:11;;;;;;;2.17;2.03;;;;;;;;;;6179207;23;20406;-86
2023/11/22 12:22:39;;;;;;;2.50;2.10;;;;;;;;;;6179690;23;20509;-83
2023/11/22 12:25:06;;;;;;;2.30;2.10;;;;;;;;;;6178513;23;20413;-87
2023/11/22 12:27:34;;;;;;;3.17;1.70;;;;;;;;;;6182875;23;20807;-83
2023/11/22 12:30:01;;;;;;;2.77;1.97;;;;;;;;;;6174693;23;20636;-86
2023/11/22 12:32:29;;;;;;;3.13;1.60;;;;;;;;;;6176473;23;20434;-86
2023/11/22 12:34:56;;;;;;;2.40;1.73;;;;;;;;;;6178321;23;20414;-86
2023/11/22 12:37:25;;;;;;;1.43;1.20;;;;;;;;;;6178214;23;20468;-86
2023/11/22 12:39:52;;;;;;;2.30;1.80;;;;;;;;;;6179255;23;20498;-86
2023/11/22 12:42:20;;;;;;;2.13;1.63;;;;;;;;;;6178780;23;20528;-85
2023/11/22 12:44:54;;;;;;;1.70;1.60;;;;;;;;;;6179241;23;20433;-86
2023/11/22 12:50:02;;;;;;;2.10;1.90;;;;;;;;;;6240234;22;20439;-85
2023/11/22 12:52:32;;;;;;;1.60;1.50;;;;;;;;;;6265187;22;20475;-86
2023/11/22 12:55:10;;;;;;;1.63;1.53;;;;;;;;;;6240786;23;20392;-86
2023/11/22 12:57:56;;;;;;;2.60;2.30;;;;;;;;;;6264660;22;20486;-84
2023/11/22 13:00:24;;;;;;;2.00;1.77;;;;;;;;;;6240711;23;20462;-85
2023/11/22 13:03:00;;;;;;;1.40;1.30;;;;;;;;;;6242375;23;20514;-85
2023/11/22 13:05:30;;;;;;;1.37;1.27;;;;;;;;;;6243623;22;20408;-88
2023/11/22 13:07:58;;;;;;;2.97;1.77;;;;;;;;;;6241464;22;20436;-88
2023/11/22 13:10:34;;;;;;;2.43;1.63;;;;;;;;;;6242412;23;20464;-88
2023/11/22 13:13:01;;;;;;;2.33;2.10;;;;;;;;;;6259895;22;20400;-90
2023/11/22 13:15:45;;;;;;;2.27;1.83;;;;;;;;;;6249244;22;20412;-88
2023/11/22 13:18:16;;;;;;;2.00;1.80;;;;;;;;;;6241266;22;20632;-89
2023/11/22 13:20:50;;;;;;;3.30;2.00;;;;;;;;;;6243710;23;20461;-87
2023/11/22 13:23:28;;;;;;;2.47;1.83;;;;;;;;;;6239413;23;20444;-87
2023/11/22 13:26:09;;;;;;;2.63;2.27;;;;;;;;;;6238199;23;20407;-87
2023/11/22 13:28:42;;;;;;;2.37;2.17;;;;;;;;;;6238563;22;20432;-87
2023/11/22 13:31:09;;;;;;;2.47;2.27;;;;;;;;;;6234602;23;20418;-86
2023/11/22 13:33:38;;;;;;;2.60;2.40;;;;;;;;;;6236481;22;20423;-87
2023/11/22 13:36:07;;;;;;;2.57;2.07;;;;;;;;;;6239140;22;20428;-86
2023/11/22 13:38:39;;;;;;;4.10;3.03;;;;;;;;;;6236896;22;20458;-84
2023/11/22 13:41:12;;;;;;;3.47;2.93;;;;;;;;;;6236705;23;20442;-85
2023/11/22 13:43:40;;;;;;;3.20;2.90;;;;;;;;;;6238570;23;20494;-86
2023/11/22 13:46:10;;;;;;;2.40;2.20;;;;;;;;;;6235099;23;20999;-86
2023/11/22 13:48:39;;;;;;;2.43;2.23;;;;;;;;;;6235672;22;20447;-85
2023/11/22 13:51:10;;;;;;;3.57;2.13;;;;;;;;;;6234682;23;20392;-86
2023/11/22 13:53:44;;;;;;;3.23;2.57;;;;;;;;;;6237715;23;20430;-85
2023/11/22 13:56:12;;;;;;;3.63;3.33;;;;;;;;;;6236464;23;20447;-87
2023/11/22 13:58:44;;;;;;;3.90;3.40;;;;;;;;;;6235142;22;20447;-87
2023/11/22 14:01:16;;;;;;;6.27;3.47;;;;;;;;;;6235294;23;20502;-84
2023/11/22 14:03:44;;;;;;;7.60;4.03;;;;;;;;;;6236590;23;20428;-87
2023/11/22 14:06:14;;;;;;;5.90;3.60;;;;;;;;;;6234945;22;20772;-86
2023/11/22 14:08:41;;;;;;;12.10;4.07;;;;;;;;;;6236735;22;20810;-85
2023/11/22 14:11:09;;;;;;;4.83;3.87;;;;;;;;;;6237888;23;20487;-87
2023/11/22 14:13:36;;;;;;;3.80;3.40;;;;;;;;;;6237720;23;20420;-87
2023/11/22 14:16:05;;;;;;;5.83;3.17;;;;;;;;;;6234932;23;20435;-86
2023/11/22 14:18:32;;;;;;;4.53;3.40;;;;;;;;;;6237394;22;20801;-87
2023/11/22 14:20:59;;;;;;;7.93;5.73;;;;;;;;;;6240214;23;20446;-87
2023/11/22 14:23:28;;;;;;;3.67;2.97;;;;;;;;;;6239717;22;20439;-87
2023/11/22 14:25:55;;;;;;;3.30;2.57;;;;;;;;;;6237310;23;20436;-87
2023/11/22 14:28:23;;;;;;;2.60;2.40;;;;;;;;;;6239246;22;20506;-86
2023/11/22 14:30:54;;;;;;;2.70;2.40;;;;;;;;;;6241051;23;20422;-88
2023/11/22 14:33:21;;;;;;;2.90;2.70;;;;;;;;;;6243603;23;20408;-87
2023/11/22 14:35:52;;;;;;;2.13;1.93;;;;;;;;;;6249552;23;20419;-88
2023/11/22 14:38:21;;;;;;;2.23;2.03;;;;;;;;;;6248902;22;20447;-87
2023/11/22 14:40:59;;;;;;;4.37;2.87;;;;;;;;;;6240568;23;20403;-85
2023/11/22 14:43:26;;;;;;;3.53;3.00;;;;;;;;;;6234844;23;20504;-87
2023/11/22 14:45:56;;;;;;;6.30;3.47;;;;;;;;;;6241985;22;20404;-86
2023/11/22 14:48:23;;;;;;;4.20;3.27;;;;;;;;;;6243431;22;20710;-86
2023/11/22 14:50:51;;;;;;;5.00;4.03;;;;;;;;;;6242826;23;20407;-86
2023/11/22 14:53:18;;;;;;;5.60;4.30;;;;;;;;;;6243602;22;20399;-86
2023/11/22 14:55:46;;;;;;;4.70;4.20;;;;;;;;;;6241180;23;20469;-85
2023/11/22 14:58:31;;;;;;;6.77;4.10;;;;;;;;;;6244648;22;20436;-85
2023/11/22 15:00:59;;;;;;;5.80;4.93;;;;;;;;;;6242452;23;20408;-86
2023/11/22 15:03:28;;;;;;;6.63;4.90;;;;;;;;;;6245216;23;20521;-86
2023/11/22 15:05:57;;;;;;;6.33;4.60;;;;;;;;;;6240563;23;20677;-86
2023/11/22 15:08:28;;;;;;;6.00;4.10;;;;;;;;;;6240539;22;20442;-87
2023/11/22 15:10:58;;;;;;;6.40;4.40;;;;;;;;;;6239934;23;20405;-86